Hlavní strana
METAR-TAF:

METAR-TAF

Letiště :

Mosjøen, Norsko

zeměpisná šířka: 65-48N, zeměpisná délka: 013-08E, výška: 70 m

Aktuální stav počasí

Zpráva byla vytvořena před 5 hodinami a 44 minutami, v 20:50 UTC
vítr z různých směrů 1 kt
Teplota 5°C
Vlhkost vzduchu 81%
Tlak 1017 hPa
Viditelnost 10 km a více
Polojasno ve výšce 2500 ft
Oblačno až skoro zataženo ve výšce 3500 ft

METAR: ENMS 212050Z VRB01KT 9999 SCT025 BKN035 05/02 Q1017 RMK WIND 412FT 00000KT

Čas: 04:34 (02:34 UTC)


TAF: chybějící

Stav a předpovědi počasí z více než 4 000 letišť (zprávy METAR a TAF).

Červené a žluté tečky na mapě představují dostupné meteorologické stanice.

Když kurzor umístíte na tečku, zobrazí se název stanice.

Pak kliknutím zobrazíte stav a předpověď počasí.

Chcete-li změnit mapu, kliknutím na zelené tlačítko se znaménkem +mapu přiblížíte, kliknutím na zelené tlačítko se znaménkem – mapu oddálíte a kliknutím na zelené šipky přejdete na sousední mapy.


METAR-TAF: